Time;durP1;ratioP1;P1;durP2;ratioP2;P2;SDS_P1;SDS_P2;PMS_P1;PMS_P2;Temp;Humidity;BMP_temperature;BMP_pressure;BME280_temperature;BME280_humidity;BME280_pressure;Samples;Min_cycle;Max_cycle;Signal;HPM_P1;HPM_P2
2022/07/21 00:02:25;;;;;;;;;5.00;4.00;;;;;22.62;81.98;101228.56;4939602;28;44940;-84
2022/07/21 00:04:50;;;;;;;;;4.00;4.00;;;;;22.60;82.10;101214.16;4956481;28;46260;-84
2022/07/21 00:07:15;;;;;;;;;3.00;3.00;;;;;22.58;81.62;101208.78;4955737;28;44687;-85
2022/07/21 00:09:41;;;;;;;;;3.00;3.00;;;;;22.61;82.06;101215.97;4935258;28;45453;-84
2022/07/21 00:12:06;;;;;;;;;6.00;5.67;;;;;22.56;81.88;101213.38;4936024;28;45342;-85
2022/07/21 00:14:32;;;;;;;;;3.67;3.67;;;;;22.52;82.41;101212.59;4930500;28;45394;-84
2022/07/21 00:16:58;;;;;;;;;5.00;5.00;;;;;22.52;82.31;101212.59;4935646;28;45372;-84
2022/07/21 00:19:23;;;;;;;;;4.00;4.00;;;;;22.49;82.22;101207.22;4926174;28;45362;-84
2022/07/21 00:21:49;;;;;;;;;5.00;3.00;;;;;22.47;82.33;101209.09;4932869;28;45555;-84
2022/07/21 00:24:14;;;;;;;;;4.33;4.33;;;;;22.42;82.42;101205.66;4933085;28;45271;-84
2022/07/21 00:26:41;;;;;;;;;3.00;3.00;;;;;22.37;83.17;101207.56;4928312;28;45671;-84
2022/07/21 00:29:07;;;;;;;;;3.00;3.00;;;;;22.32;82.87;101207.72;4933406;28;45505;-84
2022/07/21 00:31:33;;;;;;;;;4.00;4.00;;;;;22.31;83.02;101207.75;4927001;28;45330;-84
2022/07/21 00:33:58;;;;;;;;;4.00;4.00;;;;;22.23;83.78;101204.31;4948002;28;47376;-84
2022/07/21 00:36:24;;;;;;;;;5.00;4.33;;;;;22.22;83.53;101202.53;4931817;28;45420;-85
2022/07/21 00:38:49;;;;;;;;;5.67;5.67;;;;;22.17;84.12;101203.53;4928278;28;45445;-84
2022/07/21 00:41:15;;;;;;;;;3.67;3.67;;;;;22.11;84.44;101206.41;4923408;28;44919;-84
2022/07/21 00:43:43;;;;;;;;;4.00;4.00;;;;;22.05;84.90;101195.75;4929014;28;47639;-84
2022/07/21 00:46:14;;;;;;;;;5.33;4.33;;;;;21.97;84.66;101184.22;4944506;28;45423;-84
2022/07/21 00:48:41;;;;;;;;;5.67;4.00;;;;;22.07;84.68;101210.13;4930351;28;44801;-84
2022/07/21 00:51:06;;;;;;;;;5.00;3.00;;;;;21.99;85.51;101206.75;4927589;28;45391;-85
2022/07/21 00:53:32;;;;;;;;;4.67;4.00;;;;;22.00;86.19;101213.94;4922775;28;45443;-84
2022/07/21 00:56:00;;;;;;;;;4.33;4.33;;;;;22.00;86.49;101223.91;4947054;28;45373;-84
2022/07/21 00:58:27;;;;;;;;;3.00;3.00;;;;;21.81;86.73;101191.84;4925342;28;45362;-82
2022/07/21 01:00:52;;;;;;;;;3.00;3.00;;;;;21.86;87.68;101205.28;4931517;28;45560;-84
2022/07/21 01:03:18;;;;;;;;;6.00;5.00;;;;;21.91;88.02;101220.47;4923192;28;46465;-83
2022/07/21 01:05:47;;;;;;;;;3.33;3.33;;;;;21.86;87.92;101202.59;4931010;28;45529;-84
2022/07/21 01:08:14;;;;;;;;;4.00;4.00;;;;;21.75;87.84;101190.22;4921703;28;45421;-84
2022/07/21 01:10:40;;;;;;;;;2.33;2.33;;;;;21.72;88.43;101187.56;4930291;28;45377;-84
2022/07/21 01:13:07;;;;;;;;;4.00;4.00;;;;;21.65;89.05;101190.47;4946653;28;47020;-83
2022/07/21 01:15:33;;;;;;;;;5.67;5.67;;;;;21.56;89.30;101180.75;4926824;28;45842;-84
2022/07/21 01:18:02;;;;;;;;;4.00;3.00;;;;;21.61;89.09;101189.63;4932029;28;44804;-84
2022/07/21 01:20:34;;;;;;;;;4.00;3.00;;;;;21.69;89.47;101209.31;4926919;28;45333;-83
2022/07/21 01:23:00;;;;;;;;;4.33;4.33;;;;;21.74;90.53;101218.19;4948320;28;46190;-83
2022/07/21 01:25:26;;;;;;;;;3.67;3.67;;;;;21.72;90.84;101225.47;4933826;28;45539;-83
2022/07/21 01:28:45;;;;;;;;;3.33;3.33;;;;;21.71;91.57;101223.69;4947106;28;45398;-84
2022/07/21 01:31:11;;;;;;;;;4.33;4.33;;;;;21.68;92.50;101220.19;4935254;28;45315;-84
2022/07/21 01:33:37;;;;;;;;;5.00;4.33;;;;;21.60;94.06;101204.13;4934268;28;45996;-84
2022/07/21 01:36:03;;;;;;;;;5.33;5.33;;;;;21.49;93.67;101189.94;4931671;28;45668;-84
2022/07/21 01:41:32;;;;;;;;;6.00;6.00;;;;;21.45;93.99;101177.41;4932476;28;45450;-84
2022/07/21 01:44:10;;;;;;;;;8.00;5.33;;;;;21.49;93.78;101180.03;4931105;28;45601;-84
2022/07/21 01:46:44;;;;;;;;;6.33;5.00;;;;;21.53;94.06;101192.56;4932449;28;45411;-84
2022/07/21 01:49:12;;;;;;;;;5.00;5.00;;;;;21.50;94.15;101186.31;4932885;28;44806;-84
2022/07/21 01:51:38;;;;;;;;;3.00;3.00;;;;;21.49;93.98;101179.13;4926472;28;45434;-84
2022/07/21 01:54:04;;;;;;;;;6.67;6.00;;;;;21.37;94.18;101164.94;4933489;28;46443;-84
2022/07/21 01:56:34;;;;;;;;;6.67;6.67;;;;;21.54;94.24;101204.25;4925538;28;45258;-84
2022/07/21 01:59:00;;;;;;;;;5.00;5.00;;;;;21.45;94.16;101196.34;4945623;28;45503;-84
2022/07/21 02:01:31;;;;;;;;;4.00;4.00;;;;;21.34;94.15;101185.75;4931706;28;45357;-84
2022/07/21 02:03:59;;;;;;;;;7.67;7.00;;;;;21.30;94.22;101195.75;4927708;28;47006;-84
2022/07/21 02:06:26;;;;;;;;;7.00;7.00;;;;;21.45;94.25;101231.53;4923315;28;45381;-84
2022/07/21 02:08:52;;;;;;;;;4.67;4.67;;;;;21.27;94.26;101201.25;4932503;28;44763;-84
2022/07/21 02:11:18;;;;;;;;;5.00;5.00;;;;;21.18;94.68;101196.03;4925630;28;44876;-84
2022/07/21 02:13:44;;;;;;;;;7.67;7.00;;;;;21.36;94.61;101222.66;4934355;28;46617;-84
2022/07/21 02:16:11;;;;;;;;;7.00;7.00;;;;;21.28;94.83;101208.44;4923732;28;45315;-84
2022/07/21 02:18:40;;;;;;;;;11.00;8.00;;;;;21.12;94.68;101179.94;4933159;28;45529;-84
2022/07/21 02:21:06;;;;;;;;;6.00;6.00;;;;;21.16;94.33;101195.19;4949334;28;44843;-84
2022/07/21 02:23:33;;;;;;;;;5.33;5.00;;;;;21.04;94.78;101173.81;4933500;28;44937;-84
2022/07/21 02:26:00;;;;;;;;;5.33;5.33;;;;;21.30;94.83;101220.09;4931824;28;45436;-84
2022/07/21 02:28:26;;;;;;;;;7.67;7.67;;;;;21.27;95.12;101211.16;4926812;28;45592;-84
2022/07/21 02:30:53;;;;;;;;;7.00;7.00;;;;;20.98;95.84;101189.25;4932536;28;45390;-84
2022/07/21 02:33:20;;;;;;;;;10.67;8.00;;;;;21.20;95.35;101240.16;4925137;28;46992;-84
2022/07/21 02:35:46;;;;;;;;;9.67;9.67;;;;;21.11;97.31;101226.88;4931785;28;44716;-84
2022/07/21 02:38:15;;;;;;;;;10.00;9.67;;;;;21.18;95.87;101233.91;4924209;28;45438;-84
2022/07/21 02:40:44;;;;;;;;;7.00;7.00;;;;;20.97;95.39;101192.91;4949082;28;45561;-84
2022/07/21 02:43:10;;;;;;;;;11.00;9.00;;;;;21.06;96.06;101215.25;4933196;28;47230;-84
2022/07/21 02:45:43;;;;;;;;;9.00;8.00;;;;;20.96;95.66;101201.03;4932983;28;45402;-84
2022/07/21 02:48:15;;;;;;;;;7.00;7.00;;;;;21.19;96.19;101246.53;4931470;28;45512;-84
2022/07/21 02:50:43;;;;;;;;;8.00;8.00;;;;;20.93;95.84;101207.41;4930348;28;44907;-84
2022/07/21 02:53:11;;;;;;;;;9.67;8.67;;;;;21.07;96.51;101233.28;4933983;28;45771;-84
2022/07/21 02:55:38;;;;;;;;;7.00;7.00;;;;;21.10;96.97;101244.00;4930644;28;45121;-84
2022/07/21 02:58:16;;;;;;;;;8.00;8.00;;;;;20.91;97.18;101216.47;4951493;28;45662;-84
2022/07/21 03:00:53;;;;;;;;;7.33;7.33;;;;;20.85;97.62;101209.38;4929219;28;45405;-84
2022/07/21 03:03:23;;;;;;;;;12.00;10.00;;;;;21.05;97.98;101248.63;4933015;28;47148;-84
2022/07/21 03:05:49;;;;;;;;;9.00;8.00;;;;;20.99;97.95;101255.06;4950155;28;45394;-84
2022/07/21 03:08:16;;;;;;;;;12.33;12.00;;;;;20.88;97.99;101246.25;4935685;28;44812;-84
2022/07/21 03:10:45;;;;;;;;;14.00;13.33;;;;;20.74;98.61;101227.63;4915684;28;45471;-84
2022/07/21 03:13:11;;;;;;;;;11.00;11.00;;;;;20.59;99.50;101207.22;4934316;28;45548;-83
2022/07/21 03:15:37;;;;;;;;;13.33;13.00;;;;;20.54;100.00;101209.06;4934576;28;45419;-83
2022/07/21 03:18:04;;;;;;;;;15.33;14.00;;;;;20.48;100.00;101218.22;4933595;28;44790;-84
2022/07/21 03:20:32;;;;;;;;;14.00;13.33;;;;;20.57;100.00;101236.94;4945147;28;45375;-84
2022/07/21 03:22:59;;;;;;;;;11.67;11.67;;;;;20.70;100.00;101266.44;4950836;28;48450;-84
2022/07/21 03:25:24;;;;;;;;;9.00;9.00;;;;;20.67;100.00;101261.13;4927698;28;45464;-84
2022/07/21 03:27:51;;;;;;;;;11.67;11.00;;;;;20.38;100.00;101222.88;4931450;28;45501;-84
2022/07/21 03:30:17;;;;;;;;;7.33;6.33;;;;;20.65;100.00;101271.06;4934271;28;45355;-83
2022/07/21 03:32:43;;;;;;;;;9.00;9.00;;;;;20.64;100.00;101274.66;4929458;28;47812;-84
2022/07/21 03:35:11;;;;;;;;;9.67;8.00;;;;;20.38;100.00;101236.41;4948944;28;45143;-84
2022/07/21 03:37:46;;;;;;;;;11.33;11.33;;;;;20.49;100.00;101255.09;4944376;28;44785;-84
2022/07/21 03:40:14;;;;;;;;;10.00;10.00;;;;;20.40;100.00;101244.47;4948516;28;45548;-84
2022/07/21 03:42:41;;;;;;;;;13.00;11.33;;;;;20.32;100.00;101233.81;4932575;28;46419;-84
2022/07/21 03:45:08;;;;;;;;;12.67;12.33;;;;;20.48;100.00;101258.75;4934794;28;45445;-84
2022/07/21 03:47:34;;;;;;;;;12.33;12.00;;;;;20.56;100.00;101272.06;4929024;28;44829;-83
2022/07/21 03:50:00;;;;;;;;;12.33;12.33;;;;;20.60;100.00;101273.84;4934477;28;45375;-84
2022/07/21 03:52:25;;;;;;;;;17.00;14.00;;;;;20.45;100.00;101247.97;4926683;28;45493;-84
2022/07/21 03:55:07;;;;;;;;;14.00;13.33;;;;;20.62;100.00;101266.59;4934923;28;45434;-84
2022/07/21 03:57:34;;;;;;;;;19.00;16.00;;;;;20.67;100.00;101263.81;4933235;28;45439;-84
2022/07/21 04:00:04;;;;;;;;;16.67;15.33;;;;;20.79;100.00;101282.50;4931840;28;45343;-84
2022/07/21 04:02:29;;;;;;;;;15.00;13.67;;;;;20.82;100.00;101278.84;4933923;28;45487;-84
2022/07/21 04:04:55;;;;;;;;;17.33;17.33;;;;;20.63;100.00;101251.28;4930185;28;45471;-84
2022/07/21 04:07:22;;;;;;;;;18.67;18.67;;;;;20.73;100.00;101259.19;4925938;28;45496;-84
2022/07/21 04:09:54;;;;;;;;;17.00;17.00;;;;;20.86;100.00;101281.44;4931950;28;45360;-84
2022/07/21 04:12:20;;;;;;;;;17.33;16.00;;;;;20.77;100.00;101269.00;4941216;28;47519;-84
2022/07/21 04:14:46;;;;;;;;;16.00;16.00;;;;;20.61;100.00;101239.63;4948342;28;45015;-84
2022/07/21 04:17:11;;;;;;;;;16.67;16.67;;;;;20.82;100.00;101262.63;4924837;28;45445;-84
2022/07/21 04:19:37;;;;;;;;;17.00;17.00;;;;;20.71;100.00;101244.81;4931736;28;44853;-84
2022/07/21 04:22:03;;;;;;;;;18.33;17.00;;;;;20.94;100.00;101287.59;4932800;28;45449;-84
2022/07/21 04:24:28;;;;;;;;;16.67;15.33;;;;;20.97;100.00;101287.53;4934099;28;44717;-84
2022/07/21 04:26:54;;;;;;;;;21.00;21.00;;;;;20.79;100.00;101252.75;4933510;28;45357;-84
2022/07/21 04:29:20;;;;;;;;;20.33;19.33;;;;;21.02;100.00;101295.53;4933147;28;45381;-84
2022/07/21 04:31:45;;;;;;;;;18.33;17.33;;;;;20.95;100.00;101283.09;4920057;28;47399;-84
2022/07/21 04:34:11;;;;;;;;;22.33;21.33;;;;;20.87;100.00;101264.31;4948374;28;45478;-84
2022/07/21 04:36:43;;;;;;;;;19.33;19.00;;;;;20.84;100.00;101264.34;4932198;28;45436;-84
2022/07/21 04:39:09;;;;;;;;;23.00;21.33;;;;;20.81;100.00;101261.72;4933359;28;45297;-84
2022/07/21 04:41:34;;;;;;;;;19.00;19.00;;;;;21.02;100.00;101297.38;4925485;28;47817;-84
2022/07/21 04:44:00;;;;;;;;;26.33;22.33;;;;;20.98;100.00;101297.41;4931142;28;45208;-84
2022/07/21 04:46:26;;;;;;;;;22.00;21.33;;;;;20.81;100.00;101267.13;4923393;28;44816;-84
2022/07/21 04:48:52;;;;;;;;;21.33;20.00;;;;;20.82;100.00;101278.84;4931303;28;45448;-84
2022/07/21 04:51:17;;;;;;;;;22.00;21.00;;;;;20.88;100.00;101294.94;4930671;28;45344;-84
2022/07/21 04:53:43;;;;;;;;;23.00;20.00;;;;;20.80;100.00;101270.75;4927944;28;45417;-84
2022/07/21 04:56:10;;;;;;;;;23.67;23.00;;;;;20.81;100.00;101282.47;4933832;28;44826;-84
2022/07/21 04:58:39;;;;;;;;;21.33;21.33;;;;;20.74;100.00;101269.09;4936051;28;45478;-84
2022/07/21 05:01:05;;;;;;;;;22.33;21.00;;;;;20.94;100.00;101295.69;4934021;28;48208;-84
2022/07/21 05:03:30;;;;;;;;;24.67;24.00;;;;;21.02;100.00;101302.78;4930196;28;45392;-84
2022/07/21 05:05:56;;;;;;;;;26.33;24.00;;;;;21.06;100.00;101310.78;4936127;28;45514;-85
2022/07/21 05:08:22;;;;;;;;;22.67;21.33;;;;;21.10;100.00;101304.38;4935969;28;45468;-84
2022/07/21 05:10:48;;;;;;;;;24.33;23.00;;;;;21.14;100.00;101305.22;4933269;28;48159;-85
2022/07/21 05:13:14;;;;;;;;;27.33;26.67;;;;;21.11;100.00;101294.50;4942882;28;45495;-85
2022/07/21 05:15:40;;;;;;;;;29.67;25.33;;;;;21.06;100.00;101288.25;4935383;28;45473;-84
2022/07/21 05:18:08;;;;;;;;;21.33;21.33;;;;;21.11;100.00;101297.19;4933371;28;45449;-84
2022/07/21 05:23:56;;;;;;;;;24.33;23.33;;;;;21.28;100.00;101319.34;4935004;28;45448;-84
2022/07/21 05:26:21;;;;;;;;;25.67;24.00;;;;;21.28;100.00;101311.22;4928890;28;45414;-84
2022/07/21 05:28:47;;;;;;;;;28.33;27.00;;;;;21.07;100.00;101279.25;4935395;28;45611;-84
2022/07/21 05:31:14;;;;;;;;;22.00;21.33;;;;;21.29;100.00;101315.72;4926870;28;46690;-84
2022/07/21 05:33:40;;;;;;;;;23.33;22.00;;;;;21.15;100.00;101288.09;4933449;28;44713;-83
2022/07/21 05:36:06;;;;;;;;;26.00;24.33;;;;;21.11;100.00;101278.25;4929589;28;45467;-84
2022/07/21 05:38:31;;;;;;;;;25.00;24.00;;;;;21.33;100.00;101327.34;4925847;28;45533;-84
2022/07/21 05:40:59;;;;;;;;;23.67;23.67;;;;;21.17;100.00;101308.75;4932264;28;45461;-83
2022/07/21 05:43:26;;;;;;;;;20.00;19.00;;;;;21.29;100.00;101325.63;4926094;28;45455;-83
2022/07/21 05:45:51;;;;;;;;;22.33;19.67;;;;;21.15;100.00;101293.50;4917197;28;45452;-83
2022/07/21 05:48:17;;;;;;;;;23.00;23.00;;;;;21.24;100.00;101306.81;4934376;28;45459;-84
2022/07/21 05:50:43;;;;;;;;;20.33;20.33;;;;;21.28;100.00;101319.34;4929164;28;47294;-84
2022/07/21 05:53:08;;;;;;;;;21.67;20.67;;;;;21.35;100.00;101307.47;4931658;28;45814;-83
2022/07/21 05:55:34;;;;;;;;;20.33;20.00;;;;;21.46;100.00;101328.03;4929360;28;45730;-84
2022/07/21 05:57:59;;;;;;;;;24.00;21.00;;;;;21.52;100.00;101327.91;4930793;28;45378;-83
2022/07/21 06:00:25;;;;;;;;;20.67;20.67;;;;;21.64;100.00;101335.75;4932021;28;46293;-84
2022/07/21 06:02:52;;;;;;;;;22.00;21.00;;;;;21.48;100.00;101299.13;4933827;28;45515;-85
2022/07/21 06:05:19;;;;;;;;;18.67;17.33;;;;;21.69;100.00;101323.00;4929924;28;45352;-86
2022/07/21 06:07:44;;;;;;;;;22.33;22.33;;;;;21.64;100.00;101302.38;4930999;28;46014;-85
2022/07/21 06:10:10;;;;;;;;;26.67;24.00;;;;;21.84;99.58;101332.59;4931260;28;45542;-86
2022/07/21 06:12:36;;;;;;;;;25.67;23.00;;;;;21.84;98.70;101320.88;4934222;28;44867;-85
2022/07/21 06:15:03;;;;;;;;;22.33;21.67;;;;;21.94;98.05;101339.56;4932089;28;45410;-85
2022/07/21 06:17:31;;;;;;;;;22.00;21.00;;;;;21.90;96.28;101331.56;4938618;28;45353;-85
2022/07/21 06:20:00;;;;;;;;;26.67;26.00;;;;;21.96;96.06;101342.25;4933276;28;45553;-85
2022/07/21 06:22:25;;;;;;;;;24.67;22.67;;;;;22.00;94.72;101341.25;4925655;28;45468;-85
2022/07/21 06:28:15;;;;;;;;;21.00;19.67;;;;;21.97;94.26;101341.31;4934950;28;45501;-85
2022/07/21 06:30:44;;;;;;;;;23.33;23.33;;;;;22.00;95.00;101346.66;4931970;28;47301;-84
2022/07/21 06:36:41;;;;;;;;;23.67;22.00;;;;;22.14;94.67;101347.22;4921808;28;45462;-84
2022/07/21 06:39:56;;;;;;;;;22.00;22.00;;;;;22.20;94.43;101347.97;4932200;28;45440;-85
2022/07/21 06:42:23;;;;;;;;;22.00;22.00;;;;;22.25;93.60;101337.97;4921869;28;46838;-85
2022/07/21 06:44:51;;;;;;;;;22.33;21.00;;;;;22.37;93.37;101348.50;4929743;28;45849;-85
2022/07/21 06:47:16;;;;;;;;;25.67;24.67;;;;;22.45;92.86;101349.19;4922244;28;45351;-84
2022/07/21 06:49:42;;;;;;;;;21.00;21.00;;;;;22.50;92.39;101344.56;4928820;28;45422;-85
2022/07/21 06:52:10;;;;;;;;;24.67;24.67;;;;;22.57;92.84;101343.44;4930142;28;46602;-85
2022/07/21 06:54:37;;;;;;;;;20.00;20.00;;;;;22.64;91.72;101340.56;4924638;28;45453;-85
2022/07/21 06:57:03;;;;;;;;;23.33;23.33;;;;;22.66;91.38;101330.56;4945420;28;45556;-85
2022/07/21 06:59:31;;;;;;;;;24.00;20.67;;;;;22.82;91.17;101339.19;4924719;28;45430;-86
2022/07/21 07:01:58;;;;;;;;;21.33;20.00;;;;;22.95;90.66;101349.66;4929718;28;47254;-86
2022/07/21 07:04:27;;;;;;;;;28.67;26.33;;;;;22.98;89.52;101337.84;4923707;28;45303;-85
2022/07/21 07:06:55;;;;;;;;;24.67;22.67;;;;;23.07;88.87;101324.06;4930472;28;45394;-85
2022/07/21 07:09:20;;;;;;;;;23.00;22.00;;;;;23.08;88.40;101325.81;4921950;28;45278;-84
2022/07/21 07:11:47;;;;;;;;;22.33;22.00;;;;;23.13;87.84;101317.56;4929165;28;48141;-85
2022/07/21 07:14:47;;;;;;;;;25.33;24.33;;;;;23.40;87.31;101355.69;4930573;28;45357;-85
2022/07/21 07:17:18;;;;;;;;;26.67;23.67;;;;;23.42;87.12;101359.25;4929620;28;45330;-85
2022/07/21 07:19:44;;;;;;;;;25.33;22.67;;;;;23.45;86.40;101362.75;4928678;28;45307;-85
2022/07/21 07:22:16;;;;;;;;;22.33;21.33;;;;;23.39;86.85;101354.81;4929005;28;47049;-86
2022/07/21 07:24:52;;;;;;;;;23.67;20.67;;;;;23.51;86.23;101369.81;4911760;28;45446;-86
2022/07/21 07:27:18;;;;;;;;;25.00;22.67;;;;;23.34;85.94;101332.31;4945293;28;45498;-85
2022/07/21 07:29:44;;;;;;;;;24.33;23.67;;;;;23.46;85.58;101341.94;4947079;28;45474;-83
2022/07/21 07:32:10;;;;;;;;;25.67;25.67;;;;;23.56;84.80;101338.00;4948558;28;45495;-84
2022/07/21 07:34:56;;;;;;;;;23.33;21.67;;;;;23.70;84.82;101373.75;4944546;28;45249;-83
2022/07/21 07:40:44;;;;;;;;;28.67;26.33;;;;;23.36;84.53;101361.19;4942041;28;45417;-85
2022/07/21 07:43:11;;;;;;;;;26.67;24.00;;;;;23.34;85.31;101373.91;4957304;28;45602;-87
2022/07/21 07:45:39;;;;;;;;;26.67;24.00;;;;;23.44;86.15;101368.22;4958741;28;44813;-85
2022/07/21 07:48:26;;;;;;;;;30.33;26.00;;;;;23.56;85.27;101367.88;4961181;28;44708;-85
2022/07/21 07:51:04;;;;;;;;;29.00;26.00;;;;;23.67;84.58;101365.72;4962471;28;44822;-85
2022/07/21 07:57:01;;;;;;;;;28.33;28.33;;;;;23.69;84.14;101381.94;4953464;28;44853;-86
2022/07/21 07:59:27;;;;;;;;;29.33;25.67;;;;;23.46;83.50;101342.81;4938369;28;44768;-85
2022/07/21 08:01:56;;;;;;;;;20.33;19.67;;;;;23.75;83.55;101370.91;4957548;28;45484;-87
2022/07/21 08:04:24;;;;;;;;;28.33;26.33;;;;;23.59;83.31;101348.75;4939329;28;45739;-84
2022/07/21 08:06:53;;;;;;;;;25.67;25.67;;;;;23.96;83.23;101380.25;4936067;28;44795;-82
2022/07/21 08:09:19;;;;;;;;;26.33;24.00;;;;;24.13;82.50;101374.28;4943314;28;45262;-83
2022/07/21 08:11:48;;;;;;;;;23.67;22.33;;;;;24.33;82.66;101389.94;4952562;28;45467;-83
2022/07/21 08:14:17;;;;;;;;;28.00;27.33;;;;;24.16;81.30;101338.84;4952642;28;45326;-83
2022/07/21 08:16:47;;;;;;;;;29.33;28.00;;;;;24.24;80.86;101349.44;4951608;28;44942;-82
2022/07/21 08:20:06;;;;;;;;;;;;;;;;;;;;;
2022/07/21 08:22:57;;;;;;;;;32.00;30.00;;;;;24.21;79.76;101385.78;4908328;29;45390;-83
2022/07/21 08:25:28;;;;;;;;;28.00;27.67;;;;;24.04;80.21;101391.78;4900732;29;47173;-83
2022/07/21 08:28:20;;;;;;;;;30.33;26.33;;;;;24.07;80.21;101399.81;4888516;29;44979;-83
2022/07/21 08:31:04;;;;;;;;;29.67;27.33;;;;;23.69;80.55;101362.94;4904480;29;45407;-83
2022/07/21 08:33:56;;;;;;;;;30.33;28.33;;;;;23.80;80.64;101393.44;4903215;29;44832;-83
2022/07/21 08:36:29;;;;;;;;;30.67;29.33;;;;;23.90;80.91;101375.91;4885018;29;45434;-82
2022/07/21 08:39:00;;;;;;;;;28.00;27.00;;;;;24.36;80.21;101396.16;4903401;29;44745;-82
2022/07/21 08:41:28;;;;;;;;;28.00;27.33;;;;;24.40;78.75;101385.16;4897229;29;44743;-82
2022/07/21 08:43:54;;;;;;;;;27.00;26.00;;;;;24.54;79.59;101404.66;4897739;29;44835;-82
2022/07/21 08:46:32;;;;;;;;;26.33;24.67;;;;;24.60;78.66;101392.69;4880960;29;45382;-83
2022/07/21 08:49:10;;;;;;;;;25.33;24.67;;;;;24.62;78.65;101401.69;4886773;29;45381;-82
2022/07/21 08:52:13;;;;;;;;;25.00;25.00;;;;;24.72;78.30;101400.44;4898874;29;45725;-83
2022/07/21 08:54:44;;;;;;;;;30.67;30.00;;;;;24.72;78.33;101401.34;4882650;29;44837;-81
2022/07/21 08:57:16;;;;;;;;;33.00;28.33;;;;;24.79;77.55;101402.00;4910326;28;45569;-83
2022/07/21 08:59:59;;;;;;;;;32.00;31.00;;;;;24.85;77.11;101388.19;4945316;28;44775;-83
2022/07/21 09:02:37;;;;;;;;;28.33;23.67;;;;;24.84;76.64;101351.03;4946872;28;44867;-82
2022/07/21 09:05:05;;;;;;;;;25.00;25.00;;;;;25.29;75.76;101383.00;4938957;28;45478;-82
2022/07/21 09:08:04;;;;;;;;;24.00;24.00;;;;;25.73;75.09;101385.88;4953312;28;45575;-82
2022/07/21 09:10:33;;;;;;;;;28.67;26.33;;;;;25.91;73.73;101383.41;4923047;28;44776;-83
2022/07/21 09:13:03;;;;;;;;;27.67;24.67;;;;;25.92;73.44;101360.66;4914497;29;45472;-83
2022/07/21 09:15:31;;;;;;;;;26.00;25.00;;;;;26.20;72.12;101390.41;4915367;28;45614;-82
2022/07/21 09:18:15;;;;;;;;;24.00;24.00;;;;;26.23;70.98;101390.28;4901949;28;45268;-82
2022/07/21 09:20:50;;;;;;;;;25.33;23.67;;;;;26.12;70.62;101403.47;4915854;28;45408;-82
2022/07/21 09:23:18;;;;;;;;;24.67;24.67;;;;;26.07;70.88;101406.38;4916925;28;45312;-83
2022/07/21 09:26:07;;;;;;;;;28.00;26.00;;;;;25.92;70.74;101404.28;4897813;29;45387;-82
2022/07/21 09:28:35;;;;;;;;;26.00;25.00;;;;;25.75;71.37;101381.25;4895922;29;47840;-82
2022/07/21 09:31:14;;;;;;;;;25.33;25.33;;;;;25.99;70.86;101399.44;4928872;28;45427;-82
2022/07/21 09:33:45;;;;;;;;;23.67;23.67;;;;;26.04;70.27;101409.22;4900056;29;44920;-82
2022/07/21 09:36:20;;;;;;;;;23.00;21.00;;;;;26.06;70.34;101409.19;4914807;28;45662;-82
2022/07/21 09:38:58;;;;;;;;;23.67;23.67;;;;;26.13;69.82;101408.84;4932911;28;45504;-82
2022/07/21 09:41:26;;;;;;;;;24.33;23.33;;;;;26.35;68.50;101391.63;4935171;28;45014;-82
2022/07/21 09:43:59;;;;;;;;;26.00;23.33;;;;;26.63;67.94;101402.28;4918916;28;45453;-82
2022/07/21 09:46:34;;;;;;;;;23.00;22.00;;;;;26.58;68.10;101360.66;4898866;29;45302;-82
2022/07/21 09:49:30;;;;;;;;;25.00;22.67;;;;;26.99;67.10;101408.97;4914899;28;45659;-84
2022/07/21 09:54:14;;;;;;;;;21.67;21.67;;;;;26.99;66.73;101403.50;4883631;29;44843;-83
2022/07/21 09:56:49;;;;;;;;;26.33;24.67;;;;;26.97;65.88;101402.69;4815990;29;45958;-83
2022/07/21 09:59:53;;;;;;;;;20.00;20.00;;;;;26.96;66.31;101374.47;4880430;29;45569;-82
2022/07/21 10:02:45;;;;;;;;;23.67;23.67;;;;;26.98;65.06;101363.50;4885857;29;45526;-83
2022/07/21 10:05:27;;;;;;;;;18.67;17.33;;;;;27.09;64.95;101355.72;4862196;29;44972;-83
2022/07/21 10:08:19;;;;;;;;;28.33;22.33;;;;;27.26;65.68;101374.97;4893879;29;44919;-82
2022/07/21 10:10:52;;;;;;;;;23.00;23.00;;;;;27.29;65.32;101374.84;4895342;29;45503;-82
2022/07/21 10:13:25;;;;;;;;;24.33;23.00;;;;;27.44;64.73;101391.47;4886028;29;47040;-83
2022/07/21 10:15:54;;;;;;;;;19.67;19.67;;;;;27.48;63.54;101360.34;4878375;29;45467;-83
2022/07/21 10:18:29;;;;;;;;;21.33;19.00;;;;;27.63;63.32;101383.31;4893204;29;45463;-83
2022/07/21 10:21:02;;;;;;;;;19.33;18.00;;;;;27.50;63.49;101366.59;4892940;29;45575;-82
2022/07/21 10:23:42;;;;;;;;;20.50;20.00;;;;;27.44;62.58;101391.47;4872589;29;47215;-83
2022/07/21 10:26:09;;;;;;;;;19.67;18.00;;;;;27.04;61.81;101369.56;4889336;29;45605;-83
2022/07/21 10:28:35;;;;;;;;;20.33;20.33;;;;;26.82;62.95;101386.00;4881005;29;45468;-83
2022/07/21 10:31:14;;;;;;;;;21.67;21.67;;;;;26.52;63.11;101388.16;4915999;28;44858;-82
2022/07/21 10:34:03;;;;;;;;;20.33;20.33;;;;;26.32;64.96;101375.41;4907616;28;47427;-83
2022/07/21 10:36:41;;;;;;;;;19.67;19.67;;;;;26.40;64.38;101378.69;4918634;28;45469;-83
2022/07/21 10:39:34;;;;;;;;;18.67;18.00;;;;;26.58;64.85;101393.41;4913310;29;45517;-83
2022/07/21 10:42:02;;;;;;;;;17.33;16.67;;;;;26.49;63.78;101371.94;4862516;29;45483;-81
2022/07/21 10:44:28;;;;;;;;;16.33;16.33;;;;;26.64;63.83;101397.72;4855633;29;47016;-82
2022/07/21 10:47:33;;;;;;;;;21.00;20.67;;;;;26.62;63.77;101403.25;4862835;29;45592;-85
2022/07/21 10:50:01;;;;;;;;;19.33;19.33;;;;;26.65;63.60;101385.84;4867440;29;45468;-80
2022/07/21 10:52:35;;;;;;;;;18.33;18.33;;;;;26.84;62.53;101405.91;4861423;28;44901;-82
2022/07/21 10:55:10;;;;;;;;;22.33;20.67;;;;;26.57;62.70;101397.06;4849621;29;47175;-83
2022/07/21 10:57:38;;;;;;;;;22.00;21.00;;;;;26.33;63.73;101378.03;4859104;29;45882;-80
2022/07/21 11:00:16;;;;;;;;;14.67;14.33;;;;;26.48;63.32;101406.53;4838795;29;44800;-82
2022/07/21 11:02:42;;;;;;;;;20.00;20.00;;;;;26.48;63.76;101403.81;4868489;29;45398;-79
2022/07/21 11:05:08;;;;;;;;;20.00;18.33;;;;;26.50;63.17;101401.91;4867271;29;45537;-82
2022/07/21 11:08:25;;;;;;;;;16.67;16.67;;;;;26.46;62.72;101404.78;4855184;29;45809;-82
2022/07/21 11:10:52;;;;;;;;;22.67;21.33;;;;;26.29;63.99;101405.50;4847816;29;45367;-80
2022/07/21 11:16:40;;;;;;;;;23.67;22.00;;;;;26.68;63.61;101400.25;4874946;29;45434;-81
2022/07/21 11:19:31;;;;;;;;;20.33;20.33;;;;;26.99;62.99;101392.59;4880538;29;46052;-81
2022/07/21 11:21:59;;;;;;;;;20.67;20.00;;;;;27.29;62.43;101390.34;4910972;29;45799;-81
2022/07/21 11:24:26;;;;;;;;;19.67;18.33;;;;;27.52;61.57;101392.88;4916563;29;45503;-82
2022/07/21 11:27:18;;;;;;;;;21.33;20.67;;;;;27.56;60.32;101382.72;4895335;29;47688;-80
2022/07/21 11:29:46;;;;;;;;;19.00;19.00;;;;;27.43;60.13;101381.50;4893614;29;45356;-80
2022/07/21 11:32:13;;;;;;;;;18.33;18.33;;;;;27.58;59.73;101385.38;4896290;29;44770;-81
2022/07/21 11:34:50;;;;;;;;;17.33;17.33;;;;;27.69;58.18;101388.47;4911784;29;45438;-81
2022/07/21 11:37:29;;;;;;;;;20.67;17.67;;;;;27.81;59.73;101384.28;4914143;29;45367;-83
2022/07/21 11:39:58;;;;;;;;;17.67;17.67;;;;;27.83;58.32;101376.88;4897452;29;45444;-81
2022/07/21 11:42:25;;;;;;;;;18.00;18.00;;;;;27.54;58.52;101377.31;4899599;29;44822;-82
2022/07/21 11:44:51;;;;;;;;;19.67;19.67;;;;;27.27;58.64;101368.56;4914722;29;44832;-81
2022/07/21 11:47:17;;;;;;;;;12.00;12.00;;;;;26.98;59.65;101363.50;4960306;28;45445;-82
2022/07/21 11:49:44;;;;;;;;;19.33;19.33;;;;;26.91;60.14;101373.81;4954360;28;45448;-82
2022/07/21 11:52:10;;;;;;;;;21.67;18.33;;;;;27.02;60.48;101382.38;4938531;28;45571;-81
2022/07/21 11:54:45;;;;;;;;;16.33;15.00;;;;;27.06;60.09;101361.31;4955821;28;45506;-81